createdAt,value
2022-09-25T00:00:57.823Z,101146.78
2022-09-25T00:03:27.707Z,101157.28
2022-09-25T00:06:02.065Z,101156.38
2022-09-25T00:08:29.733Z,101162.50
2022-09-25T00:10:56.766Z,101154.66
2022-09-25T00:13:24.375Z,101151.19
2022-09-25T00:15:57.635Z,101140.59
2022-09-25T00:18:44.074Z,101132.59
2022-09-25T00:21:15.105Z,101128.19
2022-09-25T00:23:44.928Z,101124.66
2022-09-25T00:26:13.835Z,101125.47
2022-09-25T00:28:41.679Z,101128.91
2022-09-25T00:31:10.036Z,101129.91
2022-09-25T00:33:37.433Z,101122.94
2022-09-25T00:36:06.982Z,101132.53
2022-09-25T00:38:35.451Z,101128.06
2022-09-25T00:41:03.730Z,101129.97
2022-09-25T00:43:44.746Z,101118.50
2022-09-25T00:46:26.575Z,101111.41
2022-09-25T00:49:05.125Z,101105.13
2022-09-25T00:51:49.907Z,101098.16
2022-09-25T00:54:26.071Z,101087.63
2022-09-25T00:56:57.497Z,101097.44
2022-09-25T00:59:29.753Z,101100.16
2022-09-25T01:01:57.970Z,101101.91
2022-09-25T01:04:26.459Z,101101.00
2022-09-25T01:06:54.071Z,101092.22
2022-09-25T01:09:21.959Z,101084.47
2022-09-25T01:11:48.821Z,101096.75
2022-09-25T01:14:17.542Z,101094.13
2022-09-25T01:17:08.668Z,101098.53
2022-09-25T01:19:53.719Z,101086.25
2022-09-25T01:22:27.921Z,101095.03
2022-09-25T01:25:31.703Z,101085.28
2022-09-25T01:28:01.669Z,101086.19
2022-09-25T01:30:33.735Z,101076.59
2022-09-25T01:33:45.504Z,101073.97
2022-09-25T01:36:18.762Z,101074.81
2022-09-25T01:38:55.656Z,101075.69
2022-09-25T01:41:47.909Z,101076.59
2022-09-25T01:44:23.694Z,101079.22
2022-09-25T01:46:56.621Z,101071.31
2022-09-25T01:49:35.522Z,101086.28
2022-09-25T01:52:07.958Z,101084.50
2022-09-25T01:54:40.512Z,101085.38
2022-09-25T01:57:23.343Z,101077.47
2022-09-25T02:00:09.402Z,101070.41
2022-09-25T02:03:07.817Z,101065.09
2022-09-25T02:05:46.238Z,101067.63
2022-09-25T02:08:22.297Z,101062.31
2022-09-25T02:11:00.598Z,101063.19
2022-09-25T02:13:34.977Z,101073.78
2022-09-25T02:16:10.004Z,101067.59
2022-09-25T02:18:55.876Z,101074.59
2022-09-25T02:21:49.081Z,101064.13
2022-09-25T02:24:27.063Z,101066.72
2022-09-25T02:26:54.268Z,101071.94
2022-09-25T02:29:21.284Z,101067.59
2022-09-25T02:31:53.742Z,101068.47
2022-09-25T02:34:22.236Z,101065.00
2022-09-25T02:36:49.422Z,101070.31
2022-09-25T02:39:21.986Z,101070.28
2022-09-25T02:42:16.984Z,101076.38
2022-09-25T02:45:20.912Z,101079.88
2022-09-25T02:48:12.095Z,101082.56
2022-09-25T02:50:54.740Z,101087.91
2022-09-25T02:53:42.498Z,101089.72
2022-09-25T02:56:15.405Z,101084.47
2022-09-25T02:59:25.688Z,101091.53
2022-09-25T03:01:53.299Z,101093.28
2022-09-25T03:04:21.310Z,101089.72
2022-09-25T03:06:48.504Z,101090.50
2022-09-25T03:09:17.670Z,101091.50
2022-09-25T03:11:44.622Z,101082.75
2022-09-25T03:14:11.621Z,101086.28
2022-09-25T03:16:57.028Z,101079.22
2022-09-25T03:19:28.098Z,101080.09
2022-09-25T03:21:55.457Z,101088.03
2022-09-25T03:24:22.503Z,101084.50
2022-09-25T03:26:49.583Z,101087.91
2022-09-25T03:29:17.442Z,101091.41
2022-09-25T03:31:45.727Z,101083.38
2022-09-25T03:34:14.955Z,101084.22
2022-09-25T03:36:42.558Z,101081.63
2022-09-25T03:39:12.142Z,101086.13
2022-09-25T03:41:38.998Z,101077.41
2022-09-25T03:44:06.103Z,101077.47
2022-09-25T03:46:34.999Z,101073.06
2022-09-25T03:49:03.306Z,101075.72
2022-09-25T03:51:32.169Z,101079.22
2022-09-25T03:53:59.358Z,101080.13
2022-09-25T03:56:29.865Z,101077.47
2022-09-25T03:58:57.677Z,101079.22
2022-09-25T04:01:26.445Z,101082.75
2022-09-25T04:03:53.604Z,101084.47
2022-09-25T04:06:24.297Z,101093.25
2022-09-25T04:08:53.272Z,101092.41
2022-09-25T04:11:21.901Z,101106.44
2022-09-25T04:13:48.926Z,101112.59
2022-09-25T04:16:17.332Z,101121.22
2022-09-25T04:18:44.420Z,101117.75
2022-09-25T04:21:13.746Z,101109.03
2022-09-25T04:23:41.791Z,101107.19
2022-09-25T04:26:09.781Z,101108.09
2022-09-25T04:28:37.366Z,101102.06
2022-09-25T04:31:04.938Z,101107.28
2022-09-25T04:33:47.724Z,101113.41
2022-09-25T04:36:16.571Z,101118.50
2022-09-25T04:38:44.241Z,101106.19
2022-09-25T04:41:11.633Z,101107.13
2022-09-25T04:43:38.665Z,101100.63
2022-09-25T04:46:07.689Z,101102.84
2022-09-25T04:48:35.927Z,101108.47
2022-09-25T04:51:04.150Z,101104.47
2022-09-25T04:53:32.930Z,101108.88
2022-09-25T04:56:05.482Z,101108.31
2022-09-25T04:58:32.441Z,101107.22
2022-09-25T05:01:05.370Z,101112.78
2022-09-25T05:03:32.389Z,101108.22
2022-09-25T05:05:59.985Z,101103.56
2022-09-25T05:08:27.961Z,101108.88
2022-09-25T05:10:54.981Z,101110.06
2022-09-25T05:13:21.996Z,101099.34
2022-09-25T05:15:48.960Z,101104.38
2022-09-25T05:18:18.820Z,101096.25
2022-09-25T05:20:46.488Z,101099.25
2022-09-25T05:23:13.691Z,101107.81
2022-09-25T05:25:40.687Z,101108.88
2022-09-25T05:28:07.622Z,101102.66
2022-09-25T05:30:36.712Z,101103.53
2022-09-25T05:33:03.682Z,101089.47
2022-09-25T05:35:33.283Z,101094.75
2022-09-25T05:38:00.561Z,101097.97
2022-09-25T05:40:27.895Z,101103.56
2022-09-25T05:42:55.412Z,101100.69
2022-09-25T05:45:24.015Z,101097.91
2022-09-25T05:48:02.161Z,101106.97
2022-09-25T05:50:29.767Z,101105.56
2022-09-25T05:52:58.277Z,101107.91
2022-09-25T05:55:25.908Z,101102.94
2022-09-25T05:57:52.921Z,101111.47
2022-09-25T06:00:20.040Z,101111.03
2022-09-25T06:02:52.387Z,101116.94
2022-09-25T06:05:19.916Z,101116.34
2022-09-25T06:07:52.987Z,101116.25
2022-09-25T06:10:20.011Z,101124.72
2022-09-25T06:12:46.929Z,101117.63
2022-09-25T06:15:13.890Z,101111.09
2022-09-25T06:17:40.788Z,101117.69
2022-09-25T06:20:15.005Z,101116.72
2022-09-25T06:22:44.631Z,101113.75
2022-09-25T06:25:11.587Z,101111.81
2022-09-25T06:27:38.475Z,101104.06
2022-09-25T06:30:05.974Z,101098.69
2022-09-25T06:32:32.912Z,101103.53
2022-09-25T06:34:59.888Z,101100.66
2022-09-25T06:37:26.762Z,101105.88
2022-09-25T06:39:53.717Z,101105.69
2022-09-25T06:42:20.569Z,101110.84
2022-09-25T06:44:47.514Z,101110.31
2022-09-25T06:47:18.441Z,101110.28
2022-09-25T06:49:46.453Z,101108.66
2022-09-25T06:52:13.433Z,101107.22
2022-09-25T06:54:43.993Z,101110.66
2022-09-25T06:57:12.744Z,101109.63
2022-09-25T06:59:39.924Z,101110.38
2022-09-25T07:02:25.811Z,101111.34
2022-09-25T07:04:52.846Z,101109.84
2022-09-25T07:07:20.598Z,101110.06
2022-09-25T07:09:48.534Z,101106.81
2022-09-25T07:12:17.739Z,101115.88
2022-09-25T07:14:46.999Z,101107.34
2022-09-25T07:17:14.656Z,101111.38
2022-09-25T07:19:41.580Z,101116.47
2022-09-25T07:22:08.483Z,101112.22
2022-09-25T07:24:35.351Z,101105.81
2022-09-25T07:27:02.244Z,101104.28
2022-09-25T07:29:29.546Z,101113.75
2022-09-25T07:31:56.466Z,101101.28
2022-09-25T07:34:23.683Z,101096.00
2022-09-25T07:36:53.013Z,101100.75
2022-09-25T07:39:19.925Z,101098.03
2022-09-25T07:41:47.726Z,101099.03
2022-09-25T07:44:37.222Z,101104.56
2022-09-25T07:47:03.954Z,101106.41
2022-09-25T07:49:32.299Z,101104.66
2022-09-25T07:51:59.742Z,101104.09
2022-09-25T07:54:26.620Z,101101.47
2022-09-25T07:56:53.757Z,101105.91
2022-09-25T07:59:20.659Z,101104.19
2022-09-25T08:01:53.462Z,101097.59
2022-09-25T08:04:21.090Z,101095.13
2022-09-25T08:06:47.971Z,101098.22
2022-09-25T08:09:14.966Z,101093.22
2022-09-25T08:11:41.943Z,101089.94
2022-09-25T08:14:13.487Z,101084.25
2022-09-25T08:16:41.109Z,101081.50
2022-09-25T08:19:07.933Z,101079.47
2022-09-25T08:21:35.627Z,101076.69
2022-09-25T08:24:02.773Z,101078.69
2022-09-25T08:26:30.372Z,101076.88
2022-09-25T08:28:57.605Z,101073.13
2022-09-25T08:31:24.633Z,101068.53
2022-09-25T08:33:51.568Z,101065.28
2022-09-25T08:36:18.860Z,101069.47
2022-09-25T08:38:45.976Z,101064.84
2022-09-25T08:41:22.896Z,101076.16
2022-09-25T08:43:58.830Z,101070.91
2022-09-25T08:46:59.614Z,101063.00
2022-09-25T08:49:31.129Z,101066.31
2022-09-25T08:52:05.339Z,101064.97
2022-09-25T08:54:33.763Z,101056.06
2022-09-25T08:57:22.236Z,101061.31
2022-09-25T08:59:59.787Z,101062.78
2022-09-25T09:02:53.405Z,101052.88
2022-09-25T09:05:32.321Z,101049.81
2022-09-25T09:08:14.368Z,101049.44
2022-09-25T09:10:45.628Z,101044.56
2022-09-25T09:13:35.745Z,101048.06
2022-09-25T09:16:05.957Z,101033.34
2022-09-25T09:18:39.620Z,101030.50
2022-09-25T09:21:18.541Z,101037.34
2022-09-25T09:23:58.303Z,101034.63
2022-09-25T09:26:37.227Z,101035.78
2022-09-25T09:29:16.626Z,101037.34
2022-09-25T09:31:56.811Z,101033.44
2022-09-25T09:35:12.719Z,101034.19
2022-09-25T09:38:02.899Z,101028.13
2022-09-25T09:41:03.877Z,101012.91
2022-09-25T09:44:12.670Z,101006.97
2022-09-25T09:47:02.992Z,101020.09
2022-09-25T09:49:31.187Z,101012.25
2022-09-25T09:52:29.237Z,101002.94
2022-09-25T09:55:02.555Z,100998.13
2022-09-25T09:57:47.754Z,101007.16
2022-09-25T10:00:17.805Z,101000.31
2022-09-25T10:03:05.329Z,100996.56
2022-09-25T10:05:41.695Z,100993.50
2022-09-25T10:08:12.448Z,100994.09
2022-09-25T10:10:50.029Z,100990.56
2022-09-25T10:13:27.134Z,100972.41
2022-09-25T10:16:02.135Z,100971.59
2022-09-25T10:18:37.523Z,100974.53
2022-09-25T10:21:11.626Z,100973.75
2022-09-25T10:23:53.054Z,100964.19
2022-09-25T10:26:30.406Z,100957.69
2022-09-25T10:28:59.487Z,100958.13
2022-09-25T10:31:30.422Z,100947.63
2022-09-25T10:34:13.957Z,100943.56
2022-09-25T10:36:47.212Z,100955.16
2022-09-25T10:39:49.767Z,100954.47
2022-09-25T10:42:46.211Z,100946.81
2022-09-25T10:45:31.610Z,100944.28
2022-09-25T10:48:17.400Z,100934.72
2022-09-25T10:50:44.650Z,100938.22
2022-09-25T10:53:30.216Z,100932.81
2022-09-25T10:56:12.381Z,100936.81
2022-09-25T10:58:51.390Z,100925.53
2022-09-25T11:01:18.943Z,100909.94
2022-09-25T11:03:56.182Z,100910.31
2022-09-25T11:06:26.821Z,100917.28
2022-09-25T11:09:12.798Z,100910.31
2022-09-25T11:11:41.376Z,100900.44
2022-09-25T11:14:32.828Z,100909.53
2022-09-25T11:17:01.940Z,100901.47
2022-09-25T11:19:31.917Z,100911.28
2022-09-25T11:22:14.381Z,100904.53
2022-09-25T11:24:47.199Z,100905.94
2022-09-25T11:27:23.735Z,100910.91
2022-09-25T11:30:02.662Z,100908.81
2022-09-25T11:32:43.192Z,100906.13
2022-09-25T11:35:24.979Z,100889.66
2022-09-25T11:37:57.627Z,100898.16
2022-09-25T11:41:14.855Z,100904.16
2022-09-25T11:44:18.802Z,100901.56
2022-09-25T11:47:02.222Z,100888.78
2022-09-25T11:49:38.783Z,100893.97
2022-09-25T11:52:16.567Z,100885.16
2022-09-25T11:55:09.653Z,100872.78
2022-09-25T11:57:49.816Z,100873.16
2022-09-25T12:00:46.907Z,100877.56
2022-09-25T12:03:35.390Z,100874.56
2022-09-25T12:06:22.531Z,100874.28
2022-09-25T12:09:12.187Z,100877.22
2022-09-25T12:12:07.480Z,100875.13
2022-09-25T12:14:59.865Z,100880.19
2022-09-25T12:17:51.744Z,100882.97
2022-09-25T12:20:41.373Z,100877.19
2022-09-25T12:23:14.368Z,100859.41
2022-09-25T12:26:16.669Z,100852.69
2022-09-25T12:29:14.568Z,100864.66
2022-09-25T12:31:52.637Z,100863.31
2022-09-25T12:34:33.192Z,100867.72
2022-09-25T12:37:06.910Z,100861.06
2022-09-25T12:39:52.448Z,100861.13
2022-09-25T12:42:38.624Z,100854.84
2022-09-25T12:45:27.700Z,100848.50
2022-09-25T12:48:10.315Z,100859.44
2022-09-25T12:50:50.141Z,100857.84
2022-09-25T12:53:17.022Z,100847.63
2022-09-25T12:55:50.848Z,100849.66
2022-09-25T12:58:59.543Z,100837.94
2022-09-25T13:01:53.374Z,100836.44
2022-09-25T13:04:43.510Z,100835.22
2022-09-25T13:07:23.681Z,100836.16
2022-09-25T13:09:50.815Z,100839.91
2022-09-25T13:12:37.964Z,100845.31
2022-09-25T13:15:16.151Z,100848.84
2022-09-25T13:17:43.505Z,100839.50
2022-09-25T13:20:28.854Z,100849.78
2022-09-25T13:22:58.697Z,100847.25
2022-09-25T13:25:27.331Z,100842.47
2022-09-25T13:27:54.891Z,100845.25
2022-09-25T13:30:26.297Z,100838.41
2022-09-25T13:32:56.151Z,100830.69
2022-09-25T13:35:24.120Z,100821.88
2022-09-25T13:37:55.732Z,100810.34
2022-09-25T13:40:46.330Z,100817.59
2022-09-25T13:43:25.098Z,100825.19
2022-09-25T13:46:17.934Z,100829.78
2022-09-25T13:48:45.008Z,100814.59
2022-09-25T13:51:20.735Z,100823.63
2022-09-25T13:54:08.653Z,100820.16
2022-09-25T13:56:41.593Z,100820.00
2022-09-25T13:59:15.198Z,100809.44
2022-09-25T14:01:55.704Z,100819.63
2022-09-25T14:04:39.325Z,100819.56
2022-09-25T14:07:23.898Z,100825.28
2022-09-25T14:09:57.737Z,100815.97
2022-09-25T14:12:51.984Z,100814.22
2022-09-25T14:15:24.345Z,100809.97
2022-09-25T14:17:53.324Z,100806.28
2022-09-25T14:20:31.538Z,100801.94
2022-09-25T14:23:03.418Z,100805.53
2022-09-25T14:25:37.628Z,100804.66
2022-09-25T14:28:22.404Z,100813.22
2022-09-25T14:31:22.868Z,100811.03
2022-09-25T14:34:26.024Z,100797.34
2022-09-25T14:37:20.478Z,100801.00
2022-09-25T14:40:06.061Z,100802.72
2022-09-25T14:43:17.771Z,100811.94
2022-09-25T14:45:47.757Z,100805.38
2022-09-25T14:48:20.424Z,100801.22
2022-09-25T14:50:53.754Z,100795.13
2022-09-25T14:53:38.706Z,100799.53
2022-09-25T14:56:14.618Z,100805.97
2022-09-25T14:58:47.511Z,100804.81
2022-09-25T15:01:29.600Z,100807.25
2022-09-25T15:04:09.145Z,100810.84
2022-09-25T15:06:39.271Z,100821.28
2022-09-25T15:09:47.331Z,100809.28
2022-09-25T15:12:34.083Z,100814.94
2022-09-25T15:15:11.796Z,100809.44
2022-09-25T15:18:13.015Z,100812.34
2022-09-25T15:20:48.284Z,100805.66
2022-09-25T15:23:21.422Z,100809.22
2022-09-25T15:25:53.011Z,100806.91
2022-09-25T15:28:25.452Z,100813.69
2022-09-25T15:31:00.278Z,100804.44
2022-09-25T15:33:34.184Z,100798.56
2022-09-25T15:36:03.767Z,100792.06
2022-09-25T15:38:34.685Z,100809.47
2022-09-25T15:41:02.493Z,100795.69
2022-09-25T15:43:32.300Z,100799.31
2022-09-25T15:46:28.489Z,100792.56
2022-09-25T15:48:59.723Z,100792.56
2022-09-25T15:51:33.647Z,100802.03
2022-09-25T15:54:04.325Z,100790.59
2022-09-25T15:56:51.081Z,100781.78
2022-09-25T15:59:22.470Z,100780.88
2022-09-25T16:02:08.273Z,100782.25
2022-09-25T16:04:49.469Z,100777.97
2022-09-25T16:07:36.578Z,100783.75
2022-09-25T16:10:09.353Z,100773.31
2022-09-25T16:12:42.564Z,100793.56
2022-09-25T16:15:27.475Z,100774.44
2022-09-25T16:18:05.154Z,100778.19
2022-09-25T16:20:40.334Z,100780.88
2022-09-25T16:23:23.849Z,100775.63
2022-09-25T16:25:50.977Z,100785.00
2022-09-25T16:28:17.833Z,100770.50
2022-09-25T16:31:11.395Z,100789.34
2022-09-25T16:33:43.283Z,100788.50
2022-09-25T16:36:18.213Z,100790.13
2022-09-25T16:39:03.861Z,100792.28
2022-09-25T16:41:30.854Z,100793.19
2022-09-25T16:44:14.891Z,100790.63
2022-09-25T16:46:47.721Z,100798.56
2022-09-25T16:49:14.829Z,100785.47
2022-09-25T16:51:46.064Z,100785.41
2022-09-25T16:54:17.762Z,100789.13
2022-09-25T16:56:48.287Z,100790.06
2022-09-25T16:59:24.386Z,100808.47
2022-09-25T17:01:53.778Z,100798.97
2022-09-25T17:04:24.054Z,100816.97
2022-09-25T17:06:51.584Z,100812.53
2022-09-25T17:09:19.013Z,100810.22
2022-09-25T17:11:49.983Z,100817.69
2022-09-25T17:14:23.425Z,100814.13
2022-09-25T17:16:51.859Z,100805.03
2022-09-25T17:19:19.435Z,100805.47
2022-09-25T17:21:48.180Z,100812.97
2022-09-25T17:24:16.868Z,100812.38
2022-09-25T17:26:44.705Z,100811.44
2022-09-25T17:29:12.380Z,100804.03
2022-09-25T17:31:40.233Z,100796.91
2022-09-25T17:34:19.001Z,100799.09
2022-09-25T17:36:45.934Z,100802.28
2022-09-25T17:39:13.791Z,100805.81
2022-09-25T17:41:41.538Z,100809.53
2022-09-25T17:44:17.042Z,100816.66
2022-09-25T17:46:44.452Z,100812.34
2022-09-25T17:49:11.757Z,100813.72
2022-09-25T17:51:39.193Z,100806.84
2022-09-25T17:54:06.731Z,100810.91
2022-09-25T17:56:34.997Z,100807.44
2022-09-25T17:59:02.604Z,100822.84
2022-09-25T18:01:38.122Z,100819.41
2022-09-25T18:04:23.256Z,100817.47
2022-09-25T18:06:50.431Z,100812.50
2022-09-25T18:09:17.657Z,100810.34
2022-09-25T18:11:44.996Z,100806.03
2022-09-25T18:14:14.222Z,100810.97
2022-09-25T18:16:43.652Z,100803.56
2022-09-25T18:19:34.669Z,100804.56
2022-09-25T18:22:21.990Z,100824.75
2022-09-25T18:24:54.356Z,100812.78
2022-09-25T18:27:21.620Z,100806.34
2022-09-25T18:29:48.496Z,100811.75
2022-09-25T18:32:15.883Z,100801.38
2022-09-25T18:34:43.338Z,100812.81
2022-09-25T18:37:11.157Z,100807.53
2022-09-25T18:39:38.139Z,100792.34
2022-09-25T18:42:05.599Z,100798.41
2022-09-25T18:44:38.436Z,100796.09
2022-09-25T18:47:07.428Z,100790.66
2022-09-25T18:49:35.412Z,100782.13
2022-09-25T18:52:02.304Z,100794.00
2022-09-25T18:54:29.396Z,100784.88
2022-09-25T18:56:58.623Z,100785.59
2022-09-25T18:59:28.971Z,100792.59
2022-09-25T19:01:56.182Z,100792.47
2022-09-25T19:04:23.575Z,100793.88
2022-09-25T19:06:50.477Z,100796.84
2022-09-25T19:09:18.230Z,100798.22
2022-09-25T19:11:45.502Z,100795.19
2022-09-25T19:14:15.058Z,100792.06
2022-09-25T19:16:42.469Z,100786.91
2022-09-25T19:19:09.855Z,100788.34
2022-09-25T19:21:36.959Z,100795.22
2022-09-25T19:24:04.738Z,100796.81
2022-09-25T19:26:31.656Z,100791.09
2022-09-25T19:28:58.577Z,100797.63
2022-09-25T19:31:27.441Z,100791.81
2022-09-25T19:33:55.831Z,100797.44
2022-09-25T19:36:25.370Z,100789.56
2022-09-25T19:38:53.825Z,100797.63
2022-09-25T19:41:27.699Z,100800.28
2022-09-25T19:43:59.266Z,100792.72
2022-09-25T19:46:27.727Z,100798.59
2022-09-25T19:48:54.889Z,100797.16
2022-09-25T19:51:23.735Z,100789.44
2022-09-25T19:53:51.636Z,100795.16
2022-09-25T19:56:19.546Z,100788.50
2022-09-25T19:58:49.729Z,100784.56
2022-09-25T20:01:43.265Z,100786.25
2022-09-25T20:04:17.224Z,100797.75
2022-09-25T20:06:46.025Z,100786.06
2022-09-25T20:09:13.169Z,100781.06
2022-09-25T20:11:40.201Z,100782.25
2022-09-25T20:14:07.910Z,100791.22
2022-09-25T20:16:36.318Z,100786.19
2022-09-25T20:19:06.216Z,100784.19
2022-09-25T20:21:35.909Z,100787.38
2022-09-25T20:24:05.258Z,100787.03
2022-09-25T20:26:32.889Z,100795.38
2022-09-25T20:29:02.156Z,100788.25
2022-09-25T20:31:31.255Z,100792.91
2022-09-25T20:33:58.775Z,100787.75
2022-09-25T20:36:26.016Z,100797.19
2022-09-25T20:38:55.026Z,100800.78
2022-09-25T20:41:23.844Z,100793.63
2022-09-25T20:43:58.048Z,100796.84
2022-09-25T20:46:26.592Z,100795.19
2022-09-25T20:48:57.161Z,100794.38
2022-09-25T20:51:29.852Z,100800.06
2022-09-25T20:54:02.730Z,100791.91
2022-09-25T20:56:31.309Z,100794.06
2022-09-25T20:58:59.355Z,100798.16
2022-09-25T21:01:29.209Z,100798.47
2022-09-25T21:03:59.770Z,100797.81
2022-09-25T21:06:29.443Z,100787.38
2022-09-25T21:09:00.963Z,100788.75
2022-09-25T21:11:30.252Z,100778.97
2022-09-25T21:13:59.159Z,100779.63
2022-09-25T21:16:28.144Z,100773.03
2022-09-25T21:18:57.807Z,100777.44
2022-09-25T21:21:26.004Z,100776.38
2022-09-25T21:23:54.854Z,100765.28
2022-09-25T21:26:24.178Z,100764.44
2022-09-25T21:28:53.770Z,100765.75
2022-09-25T21:31:23.660Z,100764.25
2022-09-25T21:33:53.020Z,100762.00
2022-09-25T21:36:21.051Z,100757.63
2022-09-25T21:38:49.342Z,100755.97
2022-09-25T21:41:19.024Z,100743.66
2022-09-25T21:43:46.924Z,100747.50
2022-09-25T21:46:15.377Z,100752.88
2022-09-25T21:48:48.381Z,100746.72
2022-09-25T21:51:16.152Z,100733.09
2022-09-25T21:53:43.573Z,100725.31
2022-09-25T21:56:17.541Z,100731.31
2022-09-25T21:58:45.899Z,100726.75
2022-09-25T22:01:12.821Z,100724.75
2022-09-25T22:03:42.733Z,100719.50
2022-09-25T22:06:15.899Z,100718.31
2022-09-25T22:08:48.994Z,100713.97
2022-09-25T22:11:16.628Z,100707.97
2022-09-25T22:13:45.486Z,100714.78
2022-09-25T22:16:21.716Z,100706.41
2022-09-25T22:19:10.795Z,100713.97
2022-09-25T22:21:38.827Z,100715.13
2022-09-25T22:24:06.269Z,100710.22
2022-09-25T22:26:36.758Z,100704.72
2022-09-25T22:29:04.049Z,100704.94
2022-09-25T22:31:33.012Z,100704.41
2022-09-25T22:34:08.156Z,100707.19
2022-09-25T22:36:36.470Z,100703.56
2022-09-25T22:39:05.089Z,100704.44
2022-09-25T22:41:33.116Z,100699.72
2022-09-25T22:44:01.159Z,100698.44
2022-09-25T22:46:29.438Z,100695.41
2022-09-25T22:48:56.686Z,100699.22
2022-09-25T22:51:25.404Z,100694.00
2022-09-25T22:53:53.918Z,100692.97
2022-09-25T22:56:25.101Z,100679.25
2022-09-25T22:58:57.704Z,100681.59
2022-09-25T23:01:40.424Z,100679.34
2022-09-25T23:04:13.474Z,100686.81
2022-09-25T23:06:41.096Z,100691.91
2022-09-25T23:09:11.989Z,100681.97
2022-09-25T23:11:39.329Z,100679.25
2022-09-25T23:14:17.250Z,100680.69
2022-09-25T23:16:46.139Z,100680.16
2022-09-25T23:19:14.345Z,100680.84
2022-09-25T23:21:41.719Z,100672.13
2022-09-25T23:24:12.543Z,100675.72
2022-09-25T23:26:39.951Z,100671.81
2022-09-25T23:29:06.882Z,100666.53
2022-09-25T23:31:34.267Z,100667.44
2022-09-25T23:34:02.423Z,100662.53
2022-09-25T23:36:30.297Z,100658.50
2022-09-25T23:39:00.476Z,100650.06
2022-09-25T23:41:33.154Z,100656.06
2022-09-25T23:44:01.643Z,100643.69
2022-09-25T23:46:31.365Z,100643.63
2022-09-25T23:48:59.189Z,100643.34
2022-09-25T23:51:26.419Z,100642.78
2022-09-25T23:53:54.961Z,100634.09
2022-09-25T23:56:24.629Z,100634.34
2022-09-25T23:58:52.502Z,100632.72
